sensor_id;sensor_type;location;lat;lon;timestamp;P1;durP1;ratioP1;P2;durP2;ratioP2
12760;SDS011;6444;49.742;6.114;2023-05-10T00:00:03;14.57;;;9.43;;
12760;SDS011;6444;49.742;6.114;2023-05-10T00:02:30;13.62;;;8.25;;
12760;SDS011;6444;49.742;6.114;2023-05-10T00:04:57;12.37;;;8.93;;
12760;SDS011;6444;49.742;6.114;2023-05-10T00:07:23;15.52;;;11.75;;
12760;SDS011;6444;49.742;6.114;2023-05-10T00:09:50;14.45;;;9.75;;
12760;SDS011;6444;49.742;6.114;2023-05-10T00:12:17;16.62;;;9.30;;
12760;SDS011;6444;49.742;6.114;2023-05-10T00:14:43;13.50;;;9.02;;
12760;SDS011;6444;49.742;6.114;2023-05-10T00:17:10;12.68;;;9.07;;
12760;SDS011;6444;49.742;6.114;2023-05-10T00:19:36;17.80;;;9.48;;
12760;SDS011;6444;49.742;6.114;2023-05-10T00:22:03;13.13;;;9.38;;
12760;SDS011;6444;49.742;6.114;2023-05-10T00:24:30;16.10;;;12.77;;
12760;SDS011;6444;49.742;6.114;2023-05-10T00:26:56;16.55;;;11.23;;
12760;SDS011;6444;49.742;6.114;2023-05-10T00:29:23;15.60;;;10.07;;
12760;SDS011;6444;49.742;6.114;2023-05-10T00:31:50;17.12;;;10.00;;
12760;SDS011;6444;49.742;6.114;2023-05-10T00:34:16;18.70;;;10.88;;
12760;SDS011;6444;49.742;6.114;2023-05-10T00:36:43;19.87;;;10.77;;
12760;SDS011;6444;49.742;6.114;2023-05-10T00:39:10;15.55;;;10.57;;
12760;SDS011;6444;49.742;6.114;2023-05-10T00:41:37;17.20;;;11.38;;
12760;SDS011;6444;49.742;6.114;2023-05-10T00:44:03;17.62;;;11.57;;
12760;SDS011;6444;49.742;6.114;2023-05-10T00:46:30;18.77;;;11.85;;
12760;SDS011;6444;49.742;6.114;2023-05-10T00:48:57;18.75;;;11.93;;
12760;SDS011;6444;49.742;6.114;2023-05-10T00:51:23;16.52;;;11.57;;
12760;SDS011;6444;49.742;6.114;2023-05-10T00:53:50;19.60;;;11.82;;
12760;SDS011;6444;49.742;6.114;2023-05-10T00:56:17;15.85;;;11.43;;
12760;SDS011;6444;49.742;6.114;2023-05-10T00:58:43;18.87;;;11.98;;
12760;SDS011;6444;49.742;6.114;2023-05-10T01:01:10;18.52;;;11.88;;
12760;SDS011;6444;49.742;6.114;2023-05-10T01:03:36;17.67;;;12.37;;
12760;SDS011;6444;49.742;6.114;2023-05-10T01:06:03;21.48;;;12.45;;
12760;SDS011;6444;49.742;6.114;2023-05-10T01:08:30;22.33;;;12.63;;
12760;SDS011;6444;49.742;6.114;2023-05-10T01:10:57;20.65;;;12.45;;
12760;SDS011;6444;49.742;6.114;2023-05-10T01:15:59;17.92;;;12.23;;
12760;SDS011;6444;49.742;6.114;2023-05-10T01:18:26;20.30;;;12.85;;
12760;SDS011;6444;49.742;6.114;2023-05-10T01:20:56;20.52;;;15.15;;
12760;SDS011;6444;49.742;6.114;2023-05-10T01:26:06;19.67;;;12.05;;
12760;SDS011;6444;49.742;6.114;2023-05-10T01:28:42;19.02;;;12.10;;
12760;SDS011;6444;49.742;6.114;2023-05-10T01:36:35;14.57;;;9.93;;
12760;SDS011;6444;49.742;6.114;2023-05-10T01:39:16;17.08;;;11.00;;
12760;SDS011;6444;49.742;6.114;2023-05-10T01:44:34;18.40;;;10.70;;
12760;SDS011;6444;49.742;6.114;2023-05-10T01:47:10;17.27;;;13.40;;
12760;SDS011;6444;49.742;6.114;2023-05-10T01:49:46;17.20;;;11.60;;
12760;SDS011;6444;49.742;6.114;2023-05-10T01:52:14;19.20;;;10.85;;
12760;SDS011;6444;49.742;6.114;2023-05-10T01:54:41;17.75;;;11.60;;
12760;SDS011;6444;49.742;6.114;2023-05-10T01:57:06;15.95;;;10.98;;
12760;SDS011;6444;49.742;6.114;2023-05-10T01:59:34;16.80;;;10.25;;
12760;SDS011;6444;49.742;6.114;2023-05-10T02:01:59;17.45;;;11.73;;
12760;SDS011;6444;49.742;6.114;2023-05-10T02:04:25;18.50;;;14.25;;
12760;SDS011;6444;49.742;6.114;2023-05-10T02:06:52;17.42;;;11.73;;
12760;SDS011;6444;49.742;6.114;2023-05-10T02:09:19;19.42;;;12.30;;
12760;SDS011;6444;49.742;6.114;2023-05-10T02:11:45;20.12;;;11.32;;
12760;SDS011;6444;49.742;6.114;2023-05-10T02:14:12;17.92;;;11.35;;
12760;SDS011;6444;49.742;6.114;2023-05-10T02:16:39;16.75;;;11.30;;
12760;SDS011;6444;49.742;6.114;2023-05-10T02:19:05;21.50;;;11.82;;
12760;SDS011;6444;49.742;6.114;2023-05-10T02:21:32;19.98;;;11.48;;
12760;SDS011;6444;49.742;6.114;2023-05-10T02:23:59;18.20;;;11.52;;
12760;SDS011;6444;49.742;6.114;2023-05-10T02:26:25;18.10;;;11.73;;
12760;SDS011;6444;49.742;6.114;2023-05-10T02:28:52;19.50;;;11.82;;
12760;SDS011;6444;49.742;6.114;2023-05-10T02:31:18;22.85;;;11.82;;
12760;SDS011;6444;49.742;6.114;2023-05-10T02:33:45;18.00;;;10.82;;
12760;SDS011;6444;49.742;6.114;2023-05-10T02:36:12;17.23;;;11.43;;
12760;SDS011;6444;49.742;6.114;2023-05-10T02:38:38;17.40;;;10.95;;
12760;SDS011;6444;49.742;6.114;2023-05-10T02:41:06;18.70;;;11.38;;
12760;SDS011;6444;49.742;6.114;2023-05-10T02:43:32;19.20;;;11.70;;
12760;SDS011;6444;49.742;6.114;2023-05-10T02:45:59;18.05;;;11.30;;
12760;SDS011;6444;49.742;6.114;2023-05-10T02:48:26;17.62;;;11.15;;
12760;SDS011;6444;49.742;6.114;2023-05-10T02:50:52;18.58;;;11.75;;
12760;SDS011;6444;49.742;6.114;2023-05-10T02:53:23;18.60;;;11.63;;
12760;SDS011;6444;49.742;6.114;2023-05-10T02:55:50;20.23;;;11.65;;
12760;SDS011;6444;49.742;6.114;2023-05-10T02:58:16;21.45;;;11.27;;
12760;SDS011;6444;49.742;6.114;2023-05-10T03:00:43;16.37;;;10.88;;
12760;SDS011;6444;49.742;6.114;2023-05-10T03:03:10;18.73;;;10.43;;
12760;SDS011;6444;49.742;6.114;2023-05-10T03:05:36;15.65;;;9.75;;
12760;SDS011;6444;49.742;6.114;2023-05-10T03:08:03;16.02;;;9.35;;
12760;SDS011;6444;49.742;6.114;2023-05-10T03:10:30;12.50;;;8.23;;
12760;SDS011;6444;49.742;6.114;2023-05-10T03:15:42;12.05;;;7.18;;
12760;SDS011;6444;49.742;6.114;2023-05-10T03:18:06;9.73;;;6.07;;
12760;SDS011;6444;49.742;6.114;2023-05-10T03:20:35;7.30;;;5.18;;
12760;SDS011;6444;49.742;6.114;2023-05-10T03:25:42;11.45;;;6.20;;
12760;SDS011;6444;49.742;6.114;2023-05-10T03:28:09;6.93;;;5.70;;
12760;SDS011;6444;49.742;6.114;2023-05-10T03:30:36;8.15;;;5.28;;
12760;SDS011;6444;49.742;6.114;2023-05-10T03:33:05;5.70;;;3.85;;
12760;SDS011;6444;49.742;6.114;2023-05-10T03:35:34;4.90;;;3.80;;
12760;SDS011;6444;49.742;6.114;2023-05-10T03:38:01;5.07;;;3.40;;
12760;SDS011;6444;49.742;6.114;2023-05-10T03:40:27;3.42;;;2.92;;
12760;SDS011;6444;49.742;6.114;2023-05-10T03:43:00;2.55;;;2.00;;
12760;SDS011;6444;49.742;6.114;2023-05-10T03:45:27;2.58;;;2.22;;
12760;SDS011;6444;49.742;6.114;2023-05-10T03:47:54;2.45;;;1.62;;
12760;SDS011;6444;49.742;6.114;2023-05-10T03:50:20;3.72;;;2.00;;
12760;SDS011;6444;49.742;6.114;2023-05-10T03:52:47;2.47;;;2.05;;
12760;SDS011;6444;49.742;6.114;2023-05-10T03:55:14;3.25;;;1.73;;
12760;SDS011;6444;49.742;6.114;2023-05-10T03:57:40;3.58;;;2.30;;
12760;SDS011;6444;49.742;6.114;2023-05-10T04:00:07;2.15;;;1.90;;
12760;SDS011;6444;49.742;6.114;2023-05-10T04:02:33;3.58;;;2.17;;
12760;SDS011;6444;49.742;6.114;2023-05-10T04:05:01;3.30;;;2.50;;
12760;SDS011;6444;49.742;6.114;2023-05-10T04:07:27;4.70;;;2.10;;
12760;SDS011;6444;49.742;6.114;2023-05-10T04:09:54;3.85;;;2.47;;
12760;SDS011;6444;49.742;6.114;2023-05-10T04:12:21;2.83;;;2.40;;
12760;SDS011;6444;49.742;6.114;2023-05-10T04:14:48;4.75;;;2.20;;
12760;SDS011;6444;49.742;6.114;2023-05-10T04:17:15;6.40;;;2.80;;
12760;SDS011;6444;49.742;6.114;2023-05-10T04:19:41;5.60;;;2.20;;
12760;SDS011;6444;49.742;6.114;2023-05-10T04:22:08;6.20;;;1.83;;
12760;SDS011;6444;49.742;6.114;2023-05-10T04:24:35;3.08;;;1.70;;
12760;SDS011;6444;49.742;6.114;2023-05-10T04:27:01;2.10;;;1.87;;
12760;SDS011;6444;49.742;6.114;2023-05-10T04:29:28;5.75;;;2.12;;
12760;SDS011;6444;49.742;6.114;2023-05-10T04:31:54;2.97;;;1.92;;
12760;SDS011;6444;49.742;6.114;2023-05-10T04:34:21;3.08;;;1.70;;
12760;SDS011;6444;49.742;6.114;2023-05-10T04:36:48;2.72;;;1.45;;
12760;SDS011;6444;49.742;6.114;2023-05-10T04:39:14;2.10;;;1.90;;
12760;SDS011;6444;49.742;6.114;2023-05-10T04:41:41;1.33;;;1.23;;
12760;SDS011;6444;49.742;6.114;2023-05-10T04:44:08;4.03;;;1.55;;
12760;SDS011;6444;49.742;6.114;2023-05-10T04:46:35;1.50;;;1.40;;
12760;SDS011;6444;49.742;6.114;2023-05-10T04:49:02;2.85;;;1.58;;
12760;SDS011;6444;49.742;6.114;2023-05-10T04:51:28;3.28;;;1.35;;
12760;SDS011;6444;49.742;6.114;2023-05-10T04:53:56;2.78;;;1.58;;
12760;SDS011;6444;49.742;6.114;2023-05-10T04:56:22;2.00;;;1.60;;
12760;SDS011;6444;49.742;6.114;2023-05-10T04:58:49;2.75;;;1.48;;
12760;SDS011;6444;49.742;6.114;2023-05-10T05:01:15;3.80;;;2.17;;
12760;SDS011;6444;49.742;6.114;2023-05-10T05:03:42;2.92;;;2.53;;
12760;SDS011;6444;49.742;6.114;2023-05-10T05:06:09;1.90;;;1.60;;
12760;SDS011;6444;49.742;6.114;2023-05-10T05:08:36;2.62;;;1.80;;
12760;SDS011;6444;49.742;6.114;2023-05-10T05:11:03;2.58;;;1.70;;
12760;SDS011;6444;49.742;6.114;2023-05-10T05:13:30;2.80;;;1.62;;
12760;SDS011;6444;49.742;6.114;2023-05-10T05:15:57;3.92;;;1.70;;
12760;SDS011;6444;49.742;6.114;2023-05-10T05:18:23;1.40;;;1.30;;
12760;SDS011;6444;49.742;6.114;2023-05-10T05:20:50;3.60;;;3.30;;
12760;SDS011;6444;49.742;6.114;2023-05-10T05:23:17;3.05;;;2.10;;
12760;SDS011;6444;49.742;6.114;2023-05-10T05:25:43;1.45;;;1.33;;
12760;SDS011;6444;49.742;6.114;2023-05-10T05:28:10;1.50;;;1.00;;
12760;SDS011;6444;49.742;6.114;2023-05-10T05:30:37;1.92;;;1.20;;
12760;SDS011;6444;49.742;6.114;2023-05-10T05:33:03;1.10;;;1.00;;
12760;SDS011;6444;49.742;6.114;2023-05-10T05:35:30;9.05;;;8.15;;
12760;SDS011;6444;49.742;6.114;2023-05-10T05:37:56;8.23;;;6.30;;
12760;SDS011;6444;49.742;6.114;2023-05-10T05:40:23;3.08;;;1.62;;
12760;SDS011;6444;49.742;6.114;2023-05-10T05:42:50;1.65;;;0.90;;
12760;SDS011;6444;49.742;6.114;2023-05-10T05:45:16;4.22;;;1.00;;
12760;SDS011;6444;49.742;6.114;2023-05-10T05:47:43;2.20;;;0.98;;
12760;SDS011;6444;49.742;6.114;2023-05-10T05:50:10;1.02;;;0.90;;
12760;SDS011;6444;49.742;6.114;2023-05-10T05:52:36;3.20;;;1.10;;
12760;SDS011;6444;49.742;6.114;2023-05-10T05:55:03;1.85;;;1.17;;
12760;SDS011;6444;49.742;6.114;2023-05-10T05:57:29;1.83;;;0.90;;
12760;SDS011;6444;49.742;6.114;2023-05-10T05:59:56;1.87;;;0.98;;
12760;SDS011;6444;49.742;6.114;2023-05-10T06:02:23;2.67;;;1.00;;
12760;SDS011;6444;49.742;6.114;2023-05-10T06:04:50;1.95;;;1.10;;
12760;SDS011;6444;49.742;6.114;2023-05-10T06:07:17;1.10;;;0.88;;
12760;SDS011;6444;49.742;6.114;2023-05-10T06:09:43;1.60;;;1.00;;
12760;SDS011;6444;49.742;6.114;2023-05-10T06:12:10;2.55;;;1.08;;
12760;SDS011;6444;49.742;6.114;2023-05-10T06:14:37;1.20;;;1.10;;
12760;SDS011;6444;49.742;6.114;2023-05-10T06:17:04;2.70;;;1.10;;
12760;SDS011;6444;49.742;6.114;2023-05-10T06:19:31;2.42;;;1.05;;
12760;SDS011;6444;49.742;6.114;2023-05-10T06:21:57;1.70;;;1.30;;
12760;SDS011;6444;49.742;6.114;2023-05-10T06:24:25;3.15;;;2.30;;
12760;SDS011;6444;49.742;6.114;2023-05-10T06:26:51;1.10;;;0.90;;
12760;SDS011;6444;49.742;6.114;2023-05-10T06:29:18;1.37;;;0.70;;
12760;SDS011;6444;49.742;6.114;2023-05-10T06:31:44;2.70;;;0.88;;
12760;SDS011;6444;49.742;6.114;2023-05-10T06:34:12;1.90;;;0.90;;
12760;SDS011;6444;49.742;6.114;2023-05-10T06:36:38;1.08;;;0.93;;
12760;SDS011;6444;49.742;6.114;2023-05-10T06:39:05;0.90;;;0.90;;
12760;SDS011;6444;49.742;6.114;2023-05-10T06:41:32;1.27;;;1.17;;
12760;SDS011;6444;49.742;6.114;2023-05-10T06:43:59;1.27;;;0.98;;
12760;SDS011;6444;49.742;6.114;2023-05-10T06:46:26;2.28;;;1.37;;
12760;SDS011;6444;49.742;6.114;2023-05-10T06:48:52;2.53;;;1.20;;
12760;SDS011;6444;49.742;6.114;2023-05-10T06:51:19;1.20;;;0.90;;
12760;SDS011;6444;49.742;6.114;2023-05-10T06:53:46;2.45;;;0.90;;
12760;SDS011;6444;49.742;6.114;2023-05-10T06:56:12;1.95;;;0.98;;
12760;SDS011;6444;49.742;6.114;2023-05-10T06:58:39;2.95;;;2.42;;
12760;SDS011;6444;49.742;6.114;2023-05-10T07:01:06;2.35;;;1.58;;
12760;SDS011;6444;49.742;6.114;2023-05-10T07:03:33;16.35;;;14.43;;
12760;SDS011;6444;49.742;6.114;2023-05-10T07:06:02;1.92;;;1.55;;
12760;SDS011;6444;49.742;6.114;2023-05-10T07:08:31;1.10;;;1.00;;
12760;SDS011;6444;49.742;6.114;2023-05-10T07:11:02;1.50;;;1.40;;
12760;SDS011;6444;49.742;6.114;2023-05-10T07:13:29;2.50;;;1.40;;
12760;SDS011;6444;49.742;6.114;2023-05-10T07:15:55;3.37;;;1.10;;
12760;SDS011;6444;49.742;6.114;2023-05-10T07:18:22;1.27;;;1.12;;
12760;SDS011;6444;49.742;6.114;2023-05-10T07:20:49;1.73;;;1.00;;
12760;SDS011;6444;49.742;6.114;2023-05-10T07:23:15;3.00;;;1.40;;
12760;SDS011;6444;49.742;6.114;2023-05-10T07:25:42;7.62;;;1.45;;
12760;SDS011;6444;49.742;6.114;2023-05-10T07:28:09;2.03;;;1.20;;
12760;SDS011;6444;49.742;6.114;2023-05-10T07:30:35;2.25;;;1.20;;
12760;SDS011;6444;49.742;6.114;2023-05-10T07:33:02;1.70;;;1.40;;
12760;SDS011;6444;49.742;6.114;2023-05-10T07:35:28;2.33;;;1.12;;
12760;SDS011;6444;49.742;6.114;2023-05-10T07:37:55;2.78;;;2.20;;
12760;SDS011;6444;49.742;6.114;2023-05-10T07:40:22;2.37;;;1.67;;
12760;SDS011;6444;49.742;6.114;2023-05-10T07:42:48;2.47;;;1.37;;
12760;SDS011;6444;49.742;6.114;2023-05-10T07:45:15;9.50;;;3.10;;
12760;SDS011;6444;49.742;6.114;2023-05-10T07:47:42;1.37;;;1.27;;
12760;SDS011;6444;49.742;6.114;2023-05-10T07:50:08;1.55;;;1.08;;
12760;SDS011;6444;49.742;6.114;2023-05-10T07:52:35;26.17;;;8.07;;
12760;SDS011;6444;49.742;6.114;2023-05-10T07:55:01;13.32;;;3.83;;
12760;SDS011;6444;49.742;6.114;2023-05-10T07:57:28;2.00;;;1.20;;
12760;SDS011;6444;49.742;6.114;2023-05-10T07:59:55;1.98;;;1.17;;
12760;SDS011;6444;49.742;6.114;2023-05-10T08:02:21;2.55;;;1.20;;
12760;SDS011;6444;49.742;6.114;2023-05-10T08:04:48;1.75;;;1.10;;
12760;SDS011;6444;49.742;6.114;2023-05-10T08:07:15;1.77;;;0.93;;
12760;SDS011;6444;49.742;6.114;2023-05-10T08:09:41;2.10;;;1.27;;
12760;SDS011;6444;49.742;6.114;2023-05-10T08:12:08;3.80;;;1.10;;
12760;SDS011;6444;49.742;6.114;2023-05-10T08:14:34;1.08;;;0.80;;
12760;SDS011;6444;49.742;6.114;2023-05-10T08:17:01;1.73;;;1.00;;
12760;SDS011;6444;49.742;6.114;2023-05-10T08:19:28;15.75;;;14.20;;
12760;SDS011;6444;49.742;6.114;2023-05-10T08:21:54;4.68;;;4.07;;
12760;SDS011;6444;49.742;6.114;2023-05-10T08:24:21;1.73;;;1.62;;
12760;SDS011;6444;49.742;6.114;2023-05-10T08:26:48;2.17;;;0.90;;
12760;SDS011;6444;49.742;6.114;2023-05-10T08:29:15;2.83;;;1.20;;
12760;SDS011;6444;49.742;6.114;2023-05-10T08:31:42;2.30;;;1.10;;
12760;SDS011;6444;49.742;6.114;2023-05-10T08:34:08;0.90;;;0.90;;
12760;SDS011;6444;49.742;6.114;2023-05-10T08:36:35;1.10;;;0.80;;
12760;SDS011;6444;49.742;6.114;2023-05-10T08:39:02;1.00;;;0.90;;
12760;SDS011;6444;49.742;6.114;2023-05-10T08:41:28;2.35;;;0.90;;
12760;SDS011;6444;49.742;6.114;2023-05-10T08:43:55;0.60;;;0.60;;
12760;SDS011;6444;49.742;6.114;2023-05-10T08:46:22;1.40;;;1.10;;
12760;SDS011;6444;49.742;6.114;2023-05-10T08:48:49;1.42;;;1.15;;
12760;SDS011;6444;49.742;6.114;2023-05-10T08:51:18;3.22;;;1.40;;
12760;SDS011;6444;49.742;6.114;2023-05-10T08:53:44;1.00;;;0.90;;
12760;SDS011;6444;49.742;6.114;2023-05-10T08:56:11;1.37;;;0.90;;
12760;SDS011;6444;49.742;6.114;2023-05-10T08:58:37;5.28;;;1.67;;
12760;SDS011;6444;49.742;6.114;2023-05-10T09:01:07;2.10;;;1.45;;
12760;SDS011;6444;49.742;6.114;2023-05-10T09:03:31;1.10;;;0.90;;
12760;SDS011;6444;49.742;6.114;2023-05-10T09:05:57;1.75;;;1.00;;
12760;SDS011;6444;49.742;6.114;2023-05-10T09:08:25;8.85;;;6.20;;
12760;SDS011;6444;49.742;6.114;2023-05-10T09:10:51;6.57;;;5.70;;
12760;SDS011;6444;49.742;6.114;2023-05-10T09:13:18;2.65;;;1.30;;
12760;SDS011;6444;49.742;6.114;2023-05-10T09:15:45;2.08;;;1.00;;
12760;SDS011;6444;49.742;6.114;2023-05-10T09:18:11;1.35;;;1.25;;
12760;SDS011;6444;49.742;6.114;2023-05-10T09:20:38;3.65;;;1.40;;
12760;SDS011;6444;49.742;6.114;2023-05-10T09:23:04;1.50;;;1.12;;
12760;SDS011;6444;49.742;6.114;2023-05-10T09:25:31;1.77;;;1.00;;
12760;SDS011;6444;49.742;6.114;2023-05-10T09:28:00;3.20;;;1.65;;
12760;SDS011;6444;49.742;6.114;2023-05-10T09:30:30;3.20;;;1.60;;
12760;SDS011;6444;49.742;6.114;2023-05-10T09:32:57;3.60;;;1.70;;
12760;SDS011;6444;49.742;6.114;2023-05-10T09:35:24;2.33;;;1.70;;
12760;SDS011;6444;49.742;6.114;2023-05-10T09:37:50;3.42;;;1.45;;
12760;SDS011;6444;49.742;6.114;2023-05-10T09:40:17;2.53;;;1.50;;
12760;SDS011;6444;49.742;6.114;2023-05-10T09:42:50;3.42;;;1.30;;
12760;SDS011;6444;49.742;6.114;2023-05-10T09:45:09;2.92;;;1.48;;
12760;SDS011;6444;49.742;6.114;2023-05-10T09:47:36;3.33;;;1.48;;
12760;SDS011;6444;49.742;6.114;2023-05-10T09:50:03;1.58;;;1.48;;
12760;SDS011;6444;49.742;6.114;2023-05-10T09:52:51;1.83;;;1.50;;
12760;SDS011;6444;49.742;6.114;2023-05-10T09:54:56;3.17;;;2.03;;
12760;SDS011;6444;49.742;6.114;2023-05-10T09:57:23;2.87;;;1.85;;
12760;SDS011;6444;49.742;6.114;2023-05-10T09:59:49;2.75;;;1.50;;
12760;SDS011;6444;49.742;6.114;2023-05-10T10:02:16;4.35;;;1.70;;
12760;SDS011;6444;49.742;6.114;2023-05-10T10:04:42;3.20;;;1.45;;
12760;SDS011;6444;49.742;6.114;2023-05-10T10:07:10;3.28;;;1.60;;
12760;SDS011;6444;49.742;6.114;2023-05-10T10:09:36;4.93;;;2.30;;
12760;SDS011;6444;49.742;6.114;2023-05-10T10:12:03;6.72;;;5.35;;
12760;SDS011;6444;49.742;6.114;2023-05-10T10:14:30;10.05;;;8.18;;
12760;SDS011;6444;49.742;6.114;2023-05-10T10:16:56;3.95;;;2.10;;
12760;SDS011;6444;49.742;6.114;2023-05-10T10:19:23;3.75;;;1.77;;
12760;SDS011;6444;49.742;6.114;2023-05-10T10:21:49;3.22;;;2.08;;
12760;SDS011;6444;49.742;6.114;2023-05-10T10:24:16;4.67;;;2.30;;
12760;SDS011;6444;49.742;6.114;2023-05-10T10:26:43;6.75;;;2.25;;
12760;SDS011;6444;49.742;6.114;2023-05-10T10:31:52;7.22;;;2.60;;
12760;SDS011;6444;49.742;6.114;2023-05-10T10:34:33;3.78;;;2.03;;
12760;SDS011;6444;49.742;6.114;2023-05-10T10:36:49;5.55;;;2.40;;
12760;SDS011;6444;49.742;6.114;2023-05-10T10:39:16;4.45;;;2.12;;
12760;SDS011;6444;49.742;6.114;2023-05-10T10:41:50;4.28;;;2.42;;
12760;SDS011;6444;49.742;6.114;2023-05-10T10:49:43;4.37;;;2.45;;
12760;SDS011;6444;49.742;6.114;2023-05-10T10:52:13;6.90;;;4.45;;
12760;SDS011;6444;49.742;6.114;2023-05-10T10:54:39;14.35;;;10.65;;
12760;SDS011;6444;49.742;6.114;2023-05-10T10:57:11;16.27;;;3.15;;
12760;SDS011;6444;49.742;6.114;2023-05-10T10:59:47;13.82;;;2.60;;
12760;SDS011;6444;49.742;6.114;2023-05-10T11:02:10;5.32;;;2.03;;
12760;SDS011;6444;49.742;6.114;2023-05-10T11:04:43;3.95;;;1.90;;
12760;SDS011;6444;49.742;6.114;2023-05-10T11:07:27;3.95;;;1.80;;
12760;SDS011;6444;49.742;6.114;2023-05-10T11:09:44;4.12;;;2.12;;
12760;SDS011;6444;49.742;6.114;2023-05-10T11:12:11;4.00;;;1.67;;
12760;SDS011;6444;49.742;6.114;2023-05-10T11:14:38;3.92;;;1.70;;
12760;SDS011;6444;49.742;6.114;2023-05-10T11:20:06;4.45;;;1.50;;
12760;SDS011;6444;49.742;6.114;2023-05-10T11:22:31;3.42;;;1.70;;
12760;SDS011;6444;49.742;6.114;2023-05-10T11:24:59;2.50;;;1.50;;
12760;SDS011;6444;49.742;6.114;2023-05-10T11:27:25;2.47;;;1.50;;
12760;SDS011;6444;49.742;6.114;2023-05-10T11:29:52;6.68;;;1.65;;
12760;SDS011;6444;49.742;6.114;2023-05-10T11:32:19;2.12;;;1.25;;
12760;SDS011;6444;49.742;6.114;2023-05-10T11:34:46;3.15;;;1.50;;
12760;SDS011;6444;49.742;6.114;2023-05-10T11:37:12;3.25;;;1.52;;
12760;SDS011;6444;49.742;6.114;2023-05-10T11:39:45;3.15;;;1.65;;
12760;SDS011;6444;49.742;6.114;2023-05-10T11:42:06;2.75;;;1.40;;
12760;SDS011;6444;49.742;6.114;2023-05-10T11:44:32;2.12;;;1.30;;
12760;SDS011;6444;49.742;6.114;2023-05-10T11:46:59;2.65;;;1.60;;
12760;SDS011;6444;49.742;6.114;2023-05-10T11:49:26;3.55;;;1.62;;
12760;SDS011;6444;49.742;6.114;2023-05-10T11:51:52;2.08;;;1.50;;
12760;SDS011;6444;49.742;6.114;2023-05-10T11:54:19;2.53;;;1.05;;
12760;SDS011;6444;49.742;6.114;2023-05-10T11:56:45;1.77;;;1.00;;
12760;SDS011;6444;49.742;6.114;2023-05-10T11:59:13;3.45;;;1.20;;
12760;SDS011;6444;49.742;6.114;2023-05-10T12:01:39;4.05;;;1.10;;
12760;SDS011;6444;49.742;6.114;2023-05-10T12:04:05;2.37;;;1.27;;
12760;SDS011;6444;49.742;6.114;2023-05-10T12:06:32;2.55;;;1.40;;
12760;SDS011;6444;49.742;6.114;2023-05-10T12:08:59;2.78;;;1.20;;
12760;SDS011;6444;49.742;6.114;2023-05-10T12:11:26;1.98;;;0.93;;
12760;SDS011;6444;49.742;6.114;2023-05-10T12:13:52;3.60;;;1.10;;
12760;SDS011;6444;49.742;6.114;2023-05-10T12:16:22;3.58;;;1.40;;
12760;SDS011;6444;49.742;6.114;2023-05-10T12:18:47;3.08;;;1.10;;
12760;SDS011;6444;49.742;6.114;2023-05-10T12:21:14;3.65;;;1.37;;
12760;SDS011;6444;49.742;6.114;2023-05-10T12:23:42;2.10;;;1.27;;
12760;SDS011;6444;49.742;6.114;2023-05-10T12:26:09;3.87;;;1.60;;
12760;SDS011;6444;49.742;6.114;2023-05-10T12:28:35;3.00;;;1.40;;
12760;SDS011;6444;49.742;6.114;2023-05-10T12:31:02;6.28;;;1.33;;
12760;SDS011;6444;49.742;6.114;2023-05-10T12:33:50;2.83;;;1.00;;
12760;SDS011;6444;49.742;6.114;2023-05-10T12:36:01;3.35;;;1.40;;
12760;SDS011;6444;49.742;6.114;2023-05-10T12:38:37;4.93;;;1.20;;
12760;SDS011;6444;49.742;6.114;2023-05-10T12:41:06;2.03;;;1.00;;
12760;SDS011;6444;49.742;6.114;2023-05-10T12:43:32;2.75;;;1.00;;
12760;SDS011;6444;49.742;6.114;2023-05-10T12:46:04;2.80;;;1.08;;
12760;SDS011;6444;49.742;6.114;2023-05-10T12:48:34;2.40;;;0.90;;
12760;SDS011;6444;49.742;6.114;2023-05-10T12:51:01;1.45;;;0.88;;
12760;SDS011;6444;49.742;6.114;2023-05-10T12:53:28;3.25;;;1.50;;
12760;SDS011;6444;49.742;6.114;2023-05-10T12:55:54;1.52;;;1.00;;
12760;SDS011;6444;49.742;6.114;2023-05-10T12:58:22;1.70;;;1.05;;
12760;SDS011;6444;49.742;6.114;2023-05-10T13:00:48;1.30;;;0.88;;
12760;SDS011;6444;49.742;6.114;2023-05-10T13:03:15;1.40;;;0.98;;
12760;SDS011;6444;49.742;6.114;2023-05-10T13:05:41;1.65;;;0.90;;
12760;SDS011;6444;49.742;6.114;2023-05-10T13:08:08;1.27;;;0.73;;
12760;SDS011;6444;49.742;6.114;2023-05-10T13:10:35;2.45;;;1.02;;
12760;SDS011;6444;49.742;6.114;2023-05-10T13:13:01;4.20;;;1.00;;
12760;SDS011;6444;49.742;6.114;2023-05-10T13:15:28;5.00;;;1.42;;
12760;SDS011;6444;49.742;6.114;2023-05-10T13:17:55;3.83;;;1.30;;
12760;SDS011;6444;49.742;6.114;2023-05-10T13:20:21;3.72;;;1.00;;
12760;SDS011;6444;49.742;6.114;2023-05-10T13:22:48;3.30;;;0.90;;
12760;SDS011;6444;49.742;6.114;2023-05-10T13:25:14;3.20;;;1.25;;
12760;SDS011;6444;49.742;6.114;2023-05-10T13:27:42;3.53;;;1.10;;
12760;SDS011;6444;49.742;6.114;2023-05-10T13:30:09;1.65;;;1.10;;
12760;SDS011;6444;49.742;6.114;2023-05-10T13:32:35;6.68;;;1.12;;
12760;SDS011;6444;49.742;6.114;2023-05-10T13:35:02;2.28;;;0.90;;
12760;SDS011;6444;49.742;6.114;2023-05-10T13:37:32;2.72;;;0.95;;
12760;SDS011;6444;49.742;6.114;2023-05-10T13:39:58;2.80;;;1.00;;
12760;SDS011;6444;49.742;6.114;2023-05-10T13:42:25;2.25;;;1.20;;
12760;SDS011;6444;49.742;6.114;2023-05-10T13:44:52;1.23;;;0.80;;
12760;SDS011;6444;49.742;6.114;2023-05-10T13:47:19;2.00;;;0.88;;
12760;SDS011;6444;49.742;6.114;2023-05-10T13:49:45;1.48;;;0.98;;
12760;SDS011;6444;49.742;6.114;2023-05-10T13:52:12;3.45;;;1.42;;
12760;SDS011;6444;49.742;6.114;2023-05-10T13:54:39;4.18;;;1.00;;
12760;SDS011;6444;49.742;6.114;2023-05-10T13:57:06;1.10;;;0.73;;
12760;SDS011;6444;49.742;6.114;2023-05-10T13:59:33;1.40;;;0.70;;
12760;SDS011;6444;49.742;6.114;2023-05-10T14:01:59;1.80;;;0.70;;
12760;SDS011;6444;49.742;6.114;2023-05-10T14:04:26;1.67;;;0.85;;
12760;SDS011;6444;49.742;6.114;2023-05-10T14:06:53;2.20;;;0.90;;
12760;SDS011;6444;49.742;6.114;2023-05-10T14:09:19;2.22;;;0.82;;
12760;SDS011;6444;49.742;6.114;2023-05-10T14:11:46;1.50;;;0.75;;
12760;SDS011;6444;49.742;6.114;2023-05-10T14:14:12;2.10;;;1.00;;
12760;SDS011;6444;49.742;6.114;2023-05-10T14:16:43;1.27;;;0.90;;
12760;SDS011;6444;49.742;6.114;2023-05-10T14:19:08;1.35;;;0.90;;
12760;SDS011;6444;49.742;6.114;2023-05-10T14:21:35;2.17;;;1.00;;
12760;SDS011;6444;49.742;6.114;2023-05-10T14:24:02;3.22;;;1.10;;
12760;SDS011;6444;49.742;6.114;2023-05-10T14:26:28;2.17;;;0.93;;
12760;SDS011;6444;49.742;6.114;2023-05-10T14:28:55;4.45;;;1.40;;
12760;SDS011;6444;49.742;6.114;2023-05-10T14:31:22;1.37;;;0.90;;
12760;SDS011;6444;49.742;6.114;2023-05-10T14:33:48;1.98;;;0.90;;
12760;SDS011;6444;49.742;6.114;2023-05-10T14:36:15;2.37;;;0.83;;
12760;SDS011;6444;49.742;6.114;2023-05-10T14:38:41;0.90;;;0.90;;
12760;SDS011;6444;49.742;6.114;2023-05-10T14:41:08;2.55;;;0.95;;
12760;SDS011;6444;49.742;6.114;2023-05-10T14:43:35;1.27;;;0.80;;
12760;SDS011;6444;49.742;6.114;2023-05-10T14:46:01;2.08;;;0.90;;
12760;SDS011;6444;49.742;6.114;2023-05-10T14:48:28;1.00;;;0.90;;
12760;SDS011;6444;49.742;6.114;2023-05-10T14:50:55;2.03;;;1.10;;
12760;SDS011;6444;49.742;6.114;2023-05-10T14:53:21;1.42;;;0.75;;
12760;SDS011;6444;49.742;6.114;2023-05-10T14:55:48;3.33;;;0.95;;
12760;SDS011;6444;49.742;6.114;2023-05-10T14:58:14;3.17;;;2.15;;
12760;SDS011;6444;49.742;6.114;2023-05-10T15:00:41;2.40;;;1.27;;
12760;SDS011;6444;49.742;6.114;2023-05-10T15:03:08;4.62;;;2.15;;
12760;SDS011;6444;49.742;6.114;2023-05-10T15:05:34;3.55;;;1.02;;
12760;SDS011;6444;49.742;6.114;2023-05-10T15:08:01;1.30;;;0.85;;
12760;SDS011;6444;49.742;6.114;2023-05-10T15:10:28;1.52;;;1.10;;
12760;SDS011;6444;49.742;6.114;2023-05-10T15:12:55;1.10;;;1.00;;
12760;SDS011;6444;49.742;6.114;2023-05-10T15:15:22;2.12;;;1.00;;
12760;SDS011;6444;49.742;6.114;2023-05-10T15:17:48;1.60;;;1.10;;
12760;SDS011;6444;49.742;6.114;2023-05-10T15:20:15;5.12;;;4.65;;
12760;SDS011;6444;49.742;6.114;2023-05-10T15:22:42;7.97;;;5.97;;